Grandeur Of The Seas — C6SE3 — position and weather

sailwx.info

Track history (hours):
 
Tides and Currents Weather Stations Pressure Air Temp Water Temp Dewpoint Dewpoint Depression Visibility Wind Speed Wind Dir Waves Ship Positions

Grandeur Of The Seas

Operator: Royal Caribbean Cruises Ltd

Last reported at 2017-Feb-19 09:00 UTC. Time now 2017-Feb-20 06:35 UTC.
Position N 14°18' W 060°06'.

Type: Passenger vessel. MMSI: 311315000.

Wind from 070 at 24 knots

Barometer 1019.0 mb
Air temperature 24.0 ° C
Visibility: greater than 10.8 NM
Dewpoint 19.6 ° C
Water temperature 28.0 ° C

Date/timePositionNaut miles runAvg speedWind from/ knotsBaromVisibWave heightAir tempDewpointWater temp
2017-Feb-19 09:00N 14°18' W 060°06'15416.3 070 / 241019.010.8 24.019.628.0
2017-Feb-18 23:34N 16°33' W 061°23'1818.2
2017-Feb-18 22:34N 16°44' W 061°38'1817.9
2017-Feb-18 21:33N 16°55' W 061°53'1313.3
2017-Feb-18 20:34N 17°08' W 061°54'3 3.2
2017-Feb-18 19:31N 17°07' W 061°51'0 0.0
2017-Feb-18 18:31N 17°07' W 061°51'0 0.0
2017-Feb-18 17:31N 17°07' W 061°51'0 0.0
2017-Feb-18 16:31N 17°07' W 061°51'0 0.0
2017-Feb-18 15:31N 17°07' W 061°51'0 0.0
2017-Feb-18 14:31N 17°07' W 061°51'0 0.0
2017-Feb-18 13:31N 17°07' W 061°51'0 0.0
2017-Feb-18 12:28N 17°07' W 061°51'0 0.0
2017-Feb-18 11:31N 17°07' W 061°51'0 0.0
2017-Feb-18 10:34N 17°07' W 061°51'9 9.0
2017-Feb-18 09:33N 17°11' W 061°60'1514.7
2017-Feb-18 08:33N 17°17' W 062°13'1515.2
2017-Feb-18 07:33N 17°24' W 062°28'3614.9
2017-Feb-18 05:09N 17°40' W 063°02'1015.0
2017-Feb-18 04:27N 17°44' W 063°11'1415.0
2017-Feb-18 03:31N 17°50' W 063°25'1717.8
2017-Feb-18 02:33N 17°58' W 063°41'6318.2
2017-Feb-17 23:06N 18°11' W 064°45'204 9.2
2017-Feb-17 01:00N 21°06' W 066°36'4013.2 220 / 151021.0 25.020.727.0
2017-Feb-16 22:00N 21°42' W 066°54'10815.5 210 / 211020.0 5.4 26.021.728.0
2017-Feb-16 15:00N 23°18' W 067°48'6115.1 210 / 301021.027.0 24.0
2017-Feb-16 11:00N 24°12' W 068°18'4221.1 210 / 241020.0 5.4 23.021.626.0
2017-Feb-16 09:00N 24°48' W 068°42'18618.6 210 / 221018.0 5.4 24.021.126.0
2017-Feb-15 23:00N 27°36' W 070°12'62717.2 220 / 321016.0 5.4 22.020.524.0
2017-Feb-14 10:34N 36°52' W 075°53'1010.2
2017-Feb-14 09:33N 37°00' W 076°02'6017.3
2017-Feb-14 06:04N 38°00' W 076°12'4919.6
2017-Feb-14 03:33N 38°48' W 076°25'1716.7
2017-Feb-14 02:33N 39°05' W 076°24'1110.6
2017-Feb-14 01:33N 39°13' W 076°32'4 3.9
2017-Feb-14 00:31N 39°16' W 076°36'0 0.0
2017-Feb-13 23:25N 39°16' W 076°36'0 0.0
2017-Feb-13 22:31N 39°16' W 076°36'0 0.0
2017-Feb-13 21:31N 39°16' W 076°36'0 0.0
2017-Feb-13 20:31N 39°16' W 076°36'0 0.0
2017-Feb-13 19:30N 39°16' W 076°36'0 0.0
2017-Feb-13 18:28N 39°16' W 076°36'0 0.0
2017-Feb-13 17:31N 39°16' W 076°36'0 0.0
2017-Feb-13 16:31N 39°16' W 076°36'0 0.0
2017-Feb-13 15:31N 39°16' W 076°36'0 0.0
2017-Feb-13 14:31N 39°16' W 076°36'0 0.0
2017-Feb-13 13:31N 39°16' W 076°36'0 0.0
2017-Feb-13 12:31N 39°16' W 076°36'0 0.0
2017-Feb-13 11:31N 39°16' W 076°36'0 0.0
2017-Feb-13 10:31N 39°16' W 076°36'0 0.0
2017-Feb-13 09:31N 39°16' W 076°36'0 0.0
2017-Feb-13 08:28N 39°16' W 076°36'0 0.0
2017-Feb-13 07:25N 39°16' W 076°36'0 0.0
2017-Feb-13 06:31N 39°16' W 076°36'0 0.0
2017-Feb-13 05:31N 39°16' W 076°36'0 0.1
2017-Feb-13 04:33N 39°16' W 076°36'5 5.3
2017-Feb-13 03:33N 39°12' W 076°31'1110.5
2017-Feb-13 02:31N 39°03' W 076°23'5416.2
2017-Feb-12 23:11N 38°10' W 076°14'6814.7
2017-Feb-12 18:33N 37°02' W 076°03'1111.1
2017-Feb-12 17:33N 36°54' W 075°53'  
Track history (hours):
 
Tides and Currents Weather Stations Pressure Air Temp Water Temp Dewpoint Dewpoint Depression Visibility Wind Speed Wind Dir Waves Ship Positions

Grandeur Of The Seas

Operator: Royal Caribbean Cruises Ltd

Last reported at 2017-Feb-19 09:00 UTC. Time now 2017-Feb-20 06:35 UTC.
Position N 14°18' W 060°06'.

Type: Passenger vessel. MMSI: 311315000.

Wind from 070 at 24 knots

Barometer 1019.0 mb
Air temperature 24.0 ° C
Visibility: greater than 10.8 NM
Dewpoint 19.6 ° C
Water temperature 28.0 ° C

Date/timePositionNaut miles runAvg speedWind from/ knotsBaromVisibWave heightAir tempDewpointWater temp
2017-Feb-19 09:00N 14°18' W 060°06'15416.3 070 / 241019.010.8 24.019.628.0
2017-Feb-18 23:34N 16°33' W 061°23'1818.2
2017-Feb-18 22:34N 16°44' W 061°38'1817.9
2017-Feb-18 21:33N 16°55' W 061°53'1313.3
2017-Feb-18 20:34N 17°08' W 061°54'3 3.2
2017-Feb-18 19:31N 17°07' W 061°51'0 0.0
2017-Feb-18 18:31N 17°07' W 061°51'0 0.0
2017-Feb-18 17:31N 17°07' W 061°51'0 0.0
2017-Feb-18 16:31N 17°07' W 061°51'0 0.0
2017-Feb-18 15:31N 17°07' W 061°51'0 0.0
2017-Feb-18 14:31N 17°07' W 061°51'0 0.0
2017-Feb-18 13:31N 17°07' W 061°51'0 0.0
2017-Feb-18 12:28N 17°07' W 061°51'0 0.0
2017-Feb-18 11:31N 17°07' W 061°51'0 0.0
2017-Feb-18 10:34N 17°07' W 061°51'9 9.0
2017-Feb-18 09:33N 17°11' W 061°60'1514.7
2017-Feb-18 08:33N 17°17' W 062°13'1515.2
2017-Feb-18 07:33N 17°24' W 062°28'3614.9
2017-Feb-18 05:09N 17°40' W 063°02'1015.0
2017-Feb-18 04:27N 17°44' W 063°11'1415.0
2017-Feb-18 03:31N 17°50' W 063°25'1717.8
2017-Feb-18 02:33N 17°58' W 063°41'6318.2
2017-Feb-17 23:06N 18°11' W 064°45'204 9.2
2017-Feb-17 01:00N 21°06' W 066°36'4013.2 220 / 151021.0 25.020.727.0
2017-Feb-16 22:00N 21°42' W 066°54'10815.5 210 / 211020.0 5.4 26.021.728.0
2017-Feb-16 15:00N 23°18' W 067°48'6115.1 210 / 301021.027.0 24.0
2017-Feb-16 11:00N 24°12' W 068°18'4221.1 210 / 241020.0 5.4 23.021.626.0
2017-Feb-16 09:00N 24°48' W 068°42'18618.6 210 / 221018.0 5.4 24.021.126.0
2017-Feb-15 23:00N 27°36' W 070°12'62717.2 220 / 321016.0 5.4 22.020.524.0
2017-Feb-14 10:34N 36°52' W 075°53'1010.2
2017-Feb-14 09:33N 37°00' W 076°02'6017.3
2017-Feb-14 06:04N 38°00' W 076°12'4919.6
2017-Feb-14 03:33N 38°48' W 076°25'1716.7
2017-Feb-14 02:33N 39°05' W 076°24'1110.6
2017-Feb-14 01:33N 39°13' W 076°32'4 3.9
2017-Feb-14 00:31N 39°16' W 076°36'0 0.0
2017-Feb-13 23:25N 39°16' W 076°36'0 0.0
2017-Feb-13 22:31N 39°16' W 076°36'0 0.0
2017-Feb-13 21:31N 39°16' W 076°36'0 0.0
2017-Feb-13 20:31N 39°16' W 076°36'0 0.0
2017-Feb-13 19:30N 39°16' W 076°36'0 0.0
2017-Feb-13 18:28N 39°16' W 076°36'0 0.0
2017-Feb-13 17:31N 39°16' W 076°36'0 0.0
2017-Feb-13 16:31N 39°16' W 076°36'0 0.0
2017-Feb-13 15:31N 39°16' W 076°36'0 0.0
2017-Feb-13 14:31N 39°16' W 076°36'0 0.0
2017-Feb-13 13:31N 39°16' W 076°36'0 0.0
2017-Feb-13 12:31N 39°16' W 076°36'0 0.0
2017-Feb-13 11:31N 39°16' W 076°36'0 0.0
2017-Feb-13 10:31N 39°16' W 076°36'0 0.0
2017-Feb-13 09:31N 39°16' W 076°36'0 0.0
2017-Feb-13 08:28N 39°16' W 076°36'0 0.0
2017-Feb-13 07:25N 39°16' W 076°36'0 0.0
2017-Feb-13 06:31N 39°16' W 076°36'0 0.0
2017-Feb-13 05:31N 39°16' W 076°36'0 0.1
2017-Feb-13 04:33N 39°16' W 076°36'5 5.3
2017-Feb-13 03:33N 39°12' W 076°31'1110.5
2017-Feb-13 02:31N 39°03' W 076°23'5416.2
2017-Feb-12 23:11N 38°10' W 076°14'6814.7
2017-Feb-12 18:33N 37°02' W 076°03'1111.1
2017-Feb-12 17:33N 36°54' W 075°53'  

Dump ship's entire track history